sensor_id;sensor_type;location;lat;lon;timestamp;P1;durP1;ratioP1;P2;durP2;ratioP2
20040;SDS011;10181;48.072;9.884;2022-10-31T00:00:05;6.43;;;5.83;;
20040;SDS011;10181;48.072;9.884;2022-10-31T00:02:32;9.03;;;7.37;;
20040;SDS011;10181;48.072;9.884;2022-10-31T00:04:58;6.30;;;5.70;;
20040;SDS011;10181;48.072;9.884;2022-10-31T00:07:23;6.43;;;5.83;;
20040;SDS011;10181;48.072;9.884;2022-10-31T00:09:49;5.37;;;4.97;;
20040;SDS011;10181;48.072;9.884;2022-10-31T00:12:14;5.73;;;5.10;;
20040;SDS011;10181;48.072;9.884;2022-10-31T00:14:40;6.60;;;6.00;;
20040;SDS011;10181;48.072;9.884;2022-10-31T00:17:06;7.57;;;6.87;;
20040;SDS011;10181;48.072;9.884;2022-10-31T00:19:31;8.17;;;7.43;;
20040;SDS011;10181;48.072;9.884;2022-10-31T00:21:57;10.23;;;9.33;;
20040;SDS011;10181;48.072;9.884;2022-10-31T00:24:22;15.37;;;13.83;;
20040;SDS011;10181;48.072;9.884;2022-10-31T00:26:48;18.93;;;17.50;;
20040;SDS011;10181;48.072;9.884;2022-10-31T00:29:13;22.07;;;20.73;;
20040;SDS011;10181;48.072;9.884;2022-10-31T00:31:39;23.33;;;21.67;;
20040;SDS011;10181;48.072;9.884;2022-10-31T00:34:05;18.27;;;17.03;;
20040;SDS011;10181;48.072;9.884;2022-10-31T00:36:30;15.27;;;14.20;;
20040;SDS011;10181;48.072;9.884;2022-10-31T00:38:57;11.73;;;10.80;;
20040;SDS011;10181;48.072;9.884;2022-10-31T00:41:23;10.50;;;9.80;;
20040;SDS011;10181;48.072;9.884;2022-10-31T00:43:49;9.50;;;8.80;;
20040;SDS011;10181;48.072;9.884;2022-10-31T00:46:15;8.60;;;7.90;;
20040;SDS011;10181;48.072;9.884;2022-10-31T00:48:41;8.97;;;8.37;;
20040;SDS011;10181;48.072;9.884;2022-10-31T00:51:07;8.67;;;8.00;;
20040;SDS011;10181;48.072;9.884;2022-10-31T00:53:33;8.03;;;7.33;;
20040;SDS011;10181;48.072;9.884;2022-10-31T00:55:59;9.13;;;8.37;;
20040;SDS011;10181;48.072;9.884;2022-10-31T00:58:25;7.23;;;6.77;;
20040;SDS011;10181;48.072;9.884;2022-10-31T01:00:50;9.40;;;8.70;;
20040;SDS011;10181;48.072;9.884;2022-10-31T01:03:20;8.77;;;7.90;;
20040;SDS011;10181;48.072;9.884;2022-10-31T01:05:55;10.87;;;9.87;;
20040;SDS011;10181;48.072;9.884;2022-10-31T01:08:24;12.43;;;11.53;;
20040;SDS011;10181;48.072;9.884;2022-10-31T01:11:00;13.00;;;12.03;;
20040;SDS011;10181;48.072;9.884;2022-10-31T01:13:26;14.70;;;13.47;;
20040;SDS011;10181;48.072;9.884;2022-10-31T01:15:55;18.67;;;17.43;;
20040;SDS011;10181;48.072;9.884;2022-10-31T01:18:22;18.93;;;17.63;;
20040;SDS011;10181;48.072;9.884;2022-10-31T01:20:56;21.80;;;20.33;;
20040;SDS011;10181;48.072;9.884;2022-10-31T01:23:24;20.00;;;18.80;;
20040;SDS011;10181;48.072;9.884;2022-10-31T01:25:49;22.73;;;21.33;;
20040;SDS011;10181;48.072;9.884;2022-10-31T01:28:23;20.37;;;19.13;;
20040;SDS011;10181;48.072;9.884;2022-10-31T01:30:49;20.40;;;19.13;;
20040;SDS011;10181;48.072;9.884;2022-10-31T01:33:14;20.70;;;19.47;;
20040;SDS011;10181;48.072;9.884;2022-10-31T01:35:40;19.27;;;18.03;;
20040;SDS011;10181;48.072;9.884;2022-10-31T01:38:05;25.63;;;23.90;;
20040;SDS011;10181;48.072;9.884;2022-10-31T01:40:31;26.63;;;24.53;;
20040;SDS011;10181;48.072;9.884;2022-10-31T01:42:57;22.60;;;20.77;;
20040;SDS011;10181;48.072;9.884;2022-10-31T01:45:22;25.97;;;24.10;;
20040;SDS011;10181;48.072;9.884;2022-10-31T01:47:48;27.33;;;25.10;;
20040;SDS011;10181;48.072;9.884;2022-10-31T01:50:20;30.57;;;28.43;;
20040;SDS011;10181;48.072;9.884;2022-10-31T01:52:58;34.73;;;32.60;;
20040;SDS011;10181;48.072;9.884;2022-10-31T01:55:30;28.77;;;27.00;;
20040;SDS011;10181;48.072;9.884;2022-10-31T01:58:09;35.70;;;33.90;;
20040;SDS011;10181;48.072;9.884;2022-10-31T02:00:39;35.27;;;33.30;;
20040;SDS011;10181;48.072;9.884;2022-10-31T02:03:08;31.03;;;29.47;;
20040;SDS011;10181;48.072;9.884;2022-10-31T02:05:34;33.60;;;31.77;;
20040;SDS011;10181;48.072;9.884;2022-10-31T02:08:09;28.60;;;27.07;;
20040;SDS011;10181;48.072;9.884;2022-10-31T02:10:59;35.80;;;33.90;;
20040;SDS011;10181;48.072;9.884;2022-10-31T02:13:25;32.17;;;30.43;;
20040;SDS011;10181;48.072;9.884;2022-10-31T02:15:53;36.50;;;34.47;;
20040;SDS011;10181;48.072;9.884;2022-10-31T02:18:20;35.20;;;33.33;;
20040;SDS011;10181;48.072;9.884;2022-10-31T02:20:51;33.87;;;32.10;;
20040;SDS011;10181;48.072;9.884;2022-10-31T02:29:10;31.87;;;30.00;;
20040;SDS011;10181;48.072;9.884;2022-10-31T02:31:45;38.10;;;36.13;;
20040;SDS011;10181;48.072;9.884;2022-10-31T02:34:35;40.43;;;38.23;;
20040;SDS011;10181;48.072;9.884;2022-10-31T02:37:38;42.97;;;40.57;;
20040;SDS011;10181;48.072;9.884;2022-10-31T02:47:48;44.87;;;42.57;;
20040;SDS011;10181;48.072;9.884;2022-10-31T02:50:17;44.20;;;42.07;;
20040;SDS011;10181;48.072;9.884;2022-10-31T02:52:55;58.23;;;55.17;;
20040;SDS011;10181;48.072;9.884;2022-10-31T02:57:49;71.83;;;68.40;;
20040;SDS011;10181;48.072;9.884;2022-10-31T03:00:29;92.20;;;87.80;;
20040;SDS011;10181;48.072;9.884;2022-10-31T03:03:11;99.97;;;95.27;;
20040;SDS011;10181;48.072;9.884;2022-10-31T03:06:03;125.70;;;120.10;;
20040;SDS011;10181;48.072;9.884;2022-10-31T03:08:50;159.03;;;152.03;;
20040;SDS011;10181;48.072;9.884;2022-10-31T03:11:18;141.73;;;135.60;;
20040;SDS011;10181;48.072;9.884;2022-10-31T03:16:29;123.73;;;117.90;;
20040;SDS011;10181;48.072;9.884;2022-10-31T03:19:34;169.67;;;162.23;;
20040;SDS011;10181;48.072;9.884;2022-10-31T03:22:00;211.23;;;202.20;;
20040;SDS011;10181;48.072;9.884;2022-10-31T03:24:47;244.17;;;233.63;;
20040;SDS011;10181;48.072;9.884;2022-10-31T03:27:18;230.33;;;220.70;;
20040;SDS011;10181;48.072;9.884;2022-10-31T03:29:48;251.97;;;241.23;;
20040;SDS011;10181;48.072;9.884;2022-10-31T03:32:38;298.07;;;285.50;;
20040;SDS011;10181;48.072;9.884;2022-10-31T03:35:08;346.47;;;331.73;;
20040;SDS011;10181;48.072;9.884;2022-10-31T03:37:36;356.37;;;341.57;;
20040;SDS011;10181;48.072;9.884;2022-10-31T03:40:04;344.33;;;329.93;;
20040;SDS011;10181;48.072;9.884;2022-10-31T03:42:34;348.10;;;333.40;;
20040;SDS011;10181;48.072;9.884;2022-10-31T03:45:09;332.23;;;318.47;;
20040;SDS011;10181;48.072;9.884;2022-10-31T03:47:41;336.40;;;322.57;;
20040;SDS011;10181;48.072;9.884;2022-10-31T03:50:08;329.80;;;316.10;;
20040;SDS011;10181;48.072;9.884;2022-10-31T03:52:41;336.67;;;322.87;;
20040;SDS011;10181;48.072;9.884;2022-10-31T03:58:12;256.67;;;245.93;;
20040;SDS011;10181;48.072;9.884;2022-10-31T04:00:47;246.20;;;235.73;;
20040;SDS011;10181;48.072;9.884;2022-10-31T04:03:17;256.73;;;245.83;;
20040;SDS011;10181;48.072;9.884;2022-10-31T04:05:47;230.57;;;220.97;;
20040;SDS011;10181;48.072;9.884;2022-10-31T04:08:17;202.03;;;193.43;;
20040;SDS011;10181;48.072;9.884;2022-10-31T04:10:48;202.27;;;193.27;;
20040;SDS011;10181;48.072;9.884;2022-10-31T04:15:44;151.63;;;144.93;;
20040;SDS011;10181;48.072;9.884;2022-10-31T04:18:10;137.87;;;131.90;;
20040;SDS011;10181;48.072;9.884;2022-10-31T04:20:40;122.30;;;116.93;;
20040;SDS011;10181;48.072;9.884;2022-10-31T04:23:19;109.77;;;104.80;;
20040;SDS011;10181;48.072;9.884;2022-10-31T04:25:47;105.00;;;99.97;;
20040;SDS011;10181;48.072;9.884;2022-10-31T04:28:13;93.93;;;89.53;;
20040;SDS011;10181;48.072;9.884;2022-10-31T04:30:38;95.33;;;90.87;;
20040;SDS011;10181;48.072;9.884;2022-10-31T04:33:04;95.47;;;90.73;;
20040;SDS011;10181;48.072;9.884;2022-10-31T04:35:30;100.63;;;96.17;;
20040;SDS011;10181;48.072;9.884;2022-10-31T04:37:55;109.40;;;104.60;;
20040;SDS011;10181;48.072;9.884;2022-10-31T04:40:21;113.17;;;108.27;;
20040;SDS011;10181;48.072;9.884;2022-10-31T04:42:46;109.43;;;104.47;;
20040;SDS011;10181;48.072;9.884;2022-10-31T04:45:12;115.83;;;110.77;;
20040;SDS011;10181;48.072;9.884;2022-10-31T04:47:38;113.07;;;108.13;;
20040;SDS011;10181;48.072;9.884;2022-10-31T04:50:03;116.80;;;111.73;;
20040;SDS011;10181;48.072;9.884;2022-10-31T04:52:29;114.63;;;109.67;;
20040;SDS011;10181;48.072;9.884;2022-10-31T04:54:55;117.87;;;112.97;;
20040;SDS011;10181;48.072;9.884;2022-10-31T04:57:20;120.00;;;114.87;;
20040;SDS011;10181;48.072;9.884;2022-10-31T04:59:47;124.57;;;119.17;;
20040;SDS011;10181;48.072;9.884;2022-10-31T05:02:13;124.00;;;118.63;;
20040;SDS011;10181;48.072;9.884;2022-10-31T05:04:39;118.53;;;113.47;;
20040;SDS011;10181;48.072;9.884;2022-10-31T05:07:04;118.30;;;113.10;;
20040;SDS011;10181;48.072;9.884;2022-10-31T05:09:30;118.83;;;113.60;;
20040;SDS011;10181;48.072;9.884;2022-10-31T05:11:55;123.10;;;117.40;;
20040;SDS011;10181;48.072;9.884;2022-10-31T05:14:21;121.63;;;116.07;;
20040;SDS011;10181;48.072;9.884;2022-10-31T05:16:47;134.33;;;128.30;;
20040;SDS011;10181;48.072;9.884;2022-10-31T05:19:12;128.37;;;122.27;;
20040;SDS011;10181;48.072;9.884;2022-10-31T05:21:38;138.03;;;131.80;;
20040;SDS011;10181;48.072;9.884;2022-10-31T05:24:03;130.10;;;124.17;;
20040;SDS011;10181;48.072;9.884;2022-10-31T05:26:29;139.70;;;133.63;;
20040;SDS011;10181;48.072;9.884;2022-10-31T05:28:55;143.63;;;137.40;;
20040;SDS011;10181;48.072;9.884;2022-10-31T05:31:20;128.03;;;122.43;;
20040;SDS011;10181;48.072;9.884;2022-10-31T05:33:46;139.10;;;133.20;;
20040;SDS011;10181;48.072;9.884;2022-10-31T05:36:12;138.40;;;132.50;;
20040;SDS011;10181;48.072;9.884;2022-10-31T05:38:37;144.90;;;138.73;;
20040;SDS011;10181;48.072;9.884;2022-10-31T05:41:03;143.67;;;137.70;;
20040;SDS011;10181;48.072;9.884;2022-10-31T05:43:29;143.50;;;137.47;;
20040;SDS011;10181;48.072;9.884;2022-10-31T05:45:55;133.83;;;128.33;;
20040;SDS011;10181;48.072;9.884;2022-10-31T05:48:21;138.47;;;132.73;;
20040;SDS011;10181;48.072;9.884;2022-10-31T05:50:47;147.83;;;141.57;;
20040;SDS011;10181;48.072;9.884;2022-10-31T05:53:14;146.07;;;140.03;;
20040;SDS011;10181;48.072;9.884;2022-10-31T05:55:40;137.30;;;131.63;;
20040;SDS011;10181;48.072;9.884;2022-10-31T05:58:07;129.57;;;124.13;;
20040;SDS011;10181;48.072;9.884;2022-10-31T06:00:33;117.63;;;112.53;;
20040;SDS011;10181;48.072;9.884;2022-10-31T06:03:00;114.57;;;109.67;;
20040;SDS011;10181;48.072;9.884;2022-10-31T06:05:30;96.20;;;92.03;;
20040;SDS011;10181;48.072;9.884;2022-10-31T06:07:56;86.50;;;82.63;;
20040;SDS011;10181;48.072;9.884;2022-10-31T06:10:22;92.93;;;88.97;;
20040;SDS011;10181;48.072;9.884;2022-10-31T06:12:48;83.20;;;79.57;;
20040;SDS011;10181;48.072;9.884;2022-10-31T06:15:14;83.20;;;79.50;;
20040;SDS011;10181;48.072;9.884;2022-10-31T06:17:40;82.17;;;78.47;;
20040;SDS011;10181;48.072;9.884;2022-10-31T06:20:06;84.23;;;80.47;;
20040;SDS011;10181;48.072;9.884;2022-10-31T06:22:32;93.90;;;89.83;;
20040;SDS011;10181;48.072;9.884;2022-10-31T06:24:58;92.43;;;88.37;;
20040;SDS011;10181;48.072;9.884;2022-10-31T06:27:24;87.70;;;83.73;;
20040;SDS011;10181;48.072;9.884;2022-10-31T06:29:50;97.37;;;93.33;;
20040;SDS011;10181;48.072;9.884;2022-10-31T06:32:15;103.17;;;98.67;;
20040;SDS011;10181;48.072;9.884;2022-10-31T06:34:42;131.73;;;126.13;;
20040;SDS011;10181;48.072;9.884;2022-10-31T06:37:08;135.67;;;129.57;;
20040;SDS011;10181;48.072;9.884;2022-10-31T06:39:35;152.17;;;145.43;;
20040;SDS011;10181;48.072;9.884;2022-10-31T06:42:01;150.93;;;144.23;;
20040;SDS011;10181;48.072;9.884;2022-10-31T06:44:27;142.93;;;137.13;;
20040;SDS011;10181;48.072;9.884;2022-10-31T06:46:52;153.87;;;147.53;;
20040;SDS011;10181;48.072;9.884;2022-10-31T06:49:18;161.97;;;155.40;;
20040;SDS011;10181;48.072;9.884;2022-10-31T06:51:46;177.30;;;170.17;;
20040;SDS011;10181;48.072;9.884;2022-10-31T06:54:13;213.97;;;205.43;;
20040;SDS011;10181;48.072;9.884;2022-10-31T06:56:39;230.33;;;221.03;;
20040;SDS011;10181;48.072;9.884;2022-10-31T06:59:04;245.87;;;236.07;;
20040;SDS011;10181;48.072;9.884;2022-10-31T07:01:30;268.07;;;257.33;;
20040;SDS011;10181;48.072;9.884;2022-10-31T07:03:56;263.47;;;252.63;;
20040;SDS011;10181;48.072;9.884;2022-10-31T07:06:21;273.30;;;262.13;;
20040;SDS011;10181;48.072;9.884;2022-10-31T07:08:47;289.57;;;277.80;;
20040;SDS011;10181;48.072;9.884;2022-10-31T07:11:12;281.53;;;270.03;;
20040;SDS011;10181;48.072;9.884;2022-10-31T07:13:38;291.57;;;279.60;;
20040;SDS011;10181;48.072;9.884;2022-10-31T07:16:04;296.13;;;284.00;;
20040;SDS011;10181;48.072;9.884;2022-10-31T07:18:38;314.47;;;301.37;;
20040;SDS011;10181;48.072;9.884;2022-10-31T07:21:04;292.53;;;280.27;;
20040;SDS011;10181;48.072;9.884;2022-10-31T07:23:30;318.80;;;305.30;;
20040;SDS011;10181;48.072;9.884;2022-10-31T07:25:56;294.30;;;281.83;;
20040;SDS011;10181;48.072;9.884;2022-10-31T07:28:22;273.63;;;261.83;;
20040;SDS011;10181;48.072;9.884;2022-10-31T07:30:55;272.83;;;261.00;;
20040;SDS011;10181;48.072;9.884;2022-10-31T07:33:22;241.57;;;231.13;;
20040;SDS011;10181;48.072;9.884;2022-10-31T07:35:48;206.50;;;197.47;;
20040;SDS011;10181;48.072;9.884;2022-10-31T07:38:14;119.97;;;114.13;;
20040;SDS011;10181;48.072;9.884;2022-10-31T07:40:40;148.93;;;142.03;;
20040;SDS011;10181;48.072;9.884;2022-10-31T07:43:07;156.93;;;149.57;;
20040;SDS011;10181;48.072;9.884;2022-10-31T07:45:33;148.93;;;141.67;;
20040;SDS011;10181;48.072;9.884;2022-10-31T07:47:59;109.50;;;104.20;;
20040;SDS011;10181;48.072;9.884;2022-10-31T07:50:26;79.70;;;75.37;;
20040;SDS011;10181;48.072;9.884;2022-10-31T07:55:28;98.00;;;92.57;;
20040;SDS011;10181;48.072;9.884;2022-10-31T07:57:58;111.27;;;105.30;;
20040;SDS011;10181;48.072;9.884;2022-10-31T08:00:25;153.47;;;145.67;;
20040;SDS011;10181;48.072;9.884;2022-10-31T08:02:58;113.27;;;107.17;;
20040;SDS011;10181;48.072;9.884;2022-10-31T08:05:25;63.50;;;59.90;;
20040;SDS011;10181;48.072;9.884;2022-10-31T08:07:51;54.37;;;50.70;;
20040;SDS011;10181;48.072;9.884;2022-10-31T08:10:16;59.27;;;55.53;;
20040;SDS011;10181;48.072;9.884;2022-10-31T08:12:42;57.77;;;54.13;;
20040;SDS011;10181;48.072;9.884;2022-10-31T08:15:08;63.47;;;59.13;;
20040;SDS011;10181;48.072;9.884;2022-10-31T08:17:37;65.53;;;60.93;;
20040;SDS011;10181;48.072;9.884;2022-10-31T08:20:03;71.67;;;67.13;;
20040;SDS011;10181;48.072;9.884;2022-10-31T08:22:30;108.43;;;101.93;;
20040;SDS011;10181;48.072;9.884;2022-10-31T08:24:56;194.57;;;185.23;;
20040;SDS011;10181;48.072;9.884;2022-10-31T08:27:21;219.87;;;209.60;;
20040;SDS011;10181;48.072;9.884;2022-10-31T08:29:47;104.70;;;99.03;;
20040;SDS011;10181;48.072;9.884;2022-10-31T08:32:13;46.37;;;43.30;;
20040;SDS011;10181;48.072;9.884;2022-10-31T08:34:39;40.70;;;37.23;;
20040;SDS011;10181;48.072;9.884;2022-10-31T08:37:04;39.80;;;37.00;;
20040;SDS011;10181;48.072;9.884;2022-10-31T08:39:30;50.43;;;47.10;;
20040;SDS011;10181;48.072;9.884;2022-10-31T08:41:55;45.23;;;42.13;;
20040;SDS011;10181;48.072;9.884;2022-10-31T08:44:21;30.53;;;28.00;;
20040;SDS011;10181;48.072;9.884;2022-10-31T08:46:47;32.23;;;29.17;;
20040;SDS011;10181;48.072;9.884;2022-10-31T08:49:12;23.83;;;21.60;;
20040;SDS011;10181;48.072;9.884;2022-10-31T08:51:38;29.00;;;26.57;;
20040;SDS011;10181;48.072;9.884;2022-10-31T08:54:03;63.60;;;60.17;;
20040;SDS011;10181;48.072;9.884;2022-10-31T08:56:29;107.67;;;102.67;;
20040;SDS011;10181;48.072;9.884;2022-10-31T08:58:55;78.80;;;74.33;;
20040;SDS011;10181;48.072;9.884;2022-10-31T09:01:20;31.60;;;29.40;;
20040;SDS011;10181;48.072;9.884;2022-10-31T09:03:46;25.10;;;23.30;;
20040;SDS011;10181;48.072;9.884;2022-10-31T09:06:12;25.57;;;23.73;;
20040;SDS011;10181;48.072;9.884;2022-10-31T09:08:37;33.87;;;31.77;;
20040;SDS011;10181;48.072;9.884;2022-10-31T09:11:03;65.87;;;62.20;;
20040;SDS011;10181;48.072;9.884;2022-10-31T09:13:29;97.03;;;92.63;;
20040;SDS011;10181;48.072;9.884;2022-10-31T09:15:56;91.50;;;86.70;;
20040;SDS011;10181;48.072;9.884;2022-10-31T09:18:23;58.03;;;54.83;;
20040;SDS011;10181;48.072;9.884;2022-10-31T09:20:52;37.90;;;35.33;;
20040;SDS011;10181;48.072;9.884;2022-10-31T09:23:19;39.23;;;36.73;;
20040;SDS011;10181;48.072;9.884;2022-10-31T09:25:46;39.43;;;37.00;;
20040;SDS011;10181;48.072;9.884;2022-10-31T09:28:14;36.13;;;34.03;;
20040;SDS011;10181;48.072;9.884;2022-10-31T09:30:41;37.07;;;34.70;;
20040;SDS011;10181;48.072;9.884;2022-10-31T09:33:10;30.83;;;28.77;;
20040;SDS011;10181;48.072;9.884;2022-10-31T09:35:37;27.83;;;25.97;;
20040;SDS011;10181;48.072;9.884;2022-10-31T09:38:07;24.93;;;23.20;;
20040;SDS011;10181;48.072;9.884;2022-10-31T09:40:35;23.03;;;21.43;;
20040;SDS011;10181;48.072;9.884;2022-10-31T09:51:30;12.17;;;11.17;;
20040;SDS011;10181;48.072;9.884;2022-10-31T09:56:38;12.13;;;10.03;;
20040;SDS011;10181;48.072;9.884;2022-10-31T09:59:05;10.97;;;9.80;;
20040;SDS011;10181;48.072;9.884;2022-10-31T10:01:43;10.70;;;9.60;;
20040;SDS011;10181;48.072;9.884;2022-10-31T10:04:39;11.30;;;9.80;;
20040;SDS011;10181;48.072;9.884;2022-10-31T10:07:10;10.07;;;9.13;;
20040;SDS011;10181;48.072;9.884;2022-10-31T10:09:55;13.30;;;11.07;;
20040;SDS011;10181;48.072;9.884;2022-10-31T10:15:35;13.47;;;11.60;;
20040;SDS011;10181;48.072;9.884;2022-10-31T10:18:27;11.47;;;10.30;;
20040;SDS011;10181;48.072;9.884;2022-10-31T10:26:30;13.83;;;10.20;;
20040;SDS011;10181;48.072;9.884;2022-10-31T10:31:57;16.10;;;14.50;;
20040;SDS011;10181;48.072;9.884;2022-10-31T10:34:28;14.50;;;13.20;;
20040;SDS011;10181;48.072;9.884;2022-10-31T10:36:57;13.00;;;11.80;;
20040;SDS011;10181;48.072;9.884;2022-10-31T10:39:29;14.70;;;13.50;;
20040;SDS011;10181;48.072;9.884;2022-10-31T10:42:00;13.53;;;12.33;;
20040;SDS011;10181;48.072;9.884;2022-10-31T10:44:50;14.17;;;12.97;;
20040;SDS011;10181;48.072;9.884;2022-10-31T10:47:44;13.03;;;11.77;;
20040;SDS011;10181;48.072;9.884;2022-10-31T10:50:20;11.10;;;10.17;;
20040;SDS011;10181;48.072;9.884;2022-10-31T10:55:41;12.07;;;11.03;;
20040;SDS011;10181;48.072;9.884;2022-10-31T10:58:21;12.20;;;11.20;;
20040;SDS011;10181;48.072;9.884;2022-10-31T11:00:46;11.27;;;10.37;;
20040;SDS011;10181;48.072;9.884;2022-10-31T11:03:14;11.13;;;10.23;;
20040;SDS011;10181;48.072;9.884;2022-10-31T11:08:27;11.13;;;10.13;;
20040;SDS011;10181;48.072;9.884;2022-10-31T11:11:01;12.13;;;11.03;;
20040;SDS011;10181;48.072;9.884;2022-10-31T11:13:46;12.30;;;11.40;;
20040;SDS011;10181;48.072;9.884;2022-10-31T11:16:15;13.77;;;12.67;;
20040;SDS011;10181;48.072;9.884;2022-10-31T11:18:52;12.50;;;11.60;;
20040;SDS011;10181;48.072;9.884;2022-10-31T11:21:36;12.37;;;11.17;;
20040;SDS011;10181;48.072;9.884;2022-10-31T11:26:34;12.93;;;11.93;;
20040;SDS011;10181;48.072;9.884;2022-10-31T11:29:00;12.93;;;12.03;;
20040;SDS011;10181;48.072;9.884;2022-10-31T11:31:28;13.30;;;12.40;;
20040;SDS011;10181;48.072;9.884;2022-10-31T11:33:57;13.48;;;12.52;;
20040;SDS011;10181;48.072;9.884;2022-10-31T11:36:29;9.80;;;8.73;;
20040;SDS011;10181;48.072;9.884;2022-10-31T11:38:56;6.63;;;6.15;;
20040;SDS011;10181;48.072;9.884;2022-10-31T11:41:28;8.10;;;6.80;;
20040;SDS011;10181;48.072;9.884;2022-10-31T11:43:58;6.38;;;5.95;;
20040;SDS011;10181;48.072;9.884;2022-10-31T11:46:37;6.25;;;5.82;;
20040;SDS011;10181;48.072;9.884;2022-10-31T11:49:03;5.97;;;5.40;;
20040;SDS011;10181;48.072;9.884;2022-10-31T11:51:32;6.85;;;5.32;;
20040;SDS011;10181;48.072;9.884;2022-10-31T11:54:00;6.45;;;5.00;;
20040;SDS011;10181;48.072;9.884;2022-10-31T11:56:27;6.15;;;5.50;;
20040;SDS011;10181;48.072;9.884;2022-10-31T11:59:05;6.18;;;5.00;;
20040;SDS011;10181;48.072;9.884;2022-10-31T12:01:40;5.60;;;4.78;;
20040;SDS011;10181;48.072;9.884;2022-10-31T12:04:15;7.32;;;5.13;;
20040;SDS011;10181;48.072;9.884;2022-10-31T12:06:45;6.97;;;6.47;;
20040;SDS011;10181;48.072;9.884;2022-10-31T12:14:28;17.35;;;16.55;;
20040;SDS011;10181;48.072;9.884;2022-10-31T12:16:59;16.17;;;15.20;;
20040;SDS011;10181;48.072;9.884;2022-10-31T12:22:20;11.75;;;11.15;;
20040;SDS011;10181;48.072;9.884;2022-10-31T12:30:49;11.88;;;10.98;;
20040;SDS011;10181;48.072;9.884;2022-10-31T12:33:29;13.63;;;12.82;;
20040;SDS011;10181;48.072;9.884;2022-10-31T12:39:05;9.30;;;7.03;;
20040;SDS011;10181;48.072;9.884;2022-10-31T12:41:45;6.50;;;5.70;;
20040;SDS011;10181;48.072;9.884;2022-10-31T12:44:34;7.03;;;6.47;;
20040;SDS011;10181;48.072;9.884;2022-10-31T12:47:26;7.47;;;7.07;;
20040;SDS011;10181;48.072;9.884;2022-10-31T12:58:42;11.40;;;10.68;;
20040;SDS011;10181;48.072;9.884;2022-10-31T13:01:20;10.60;;;10.00;;
20040;SDS011;10181;48.072;9.884;2022-10-31T13:04:18;11.68;;;11.02;;
20040;SDS011;10181;48.072;9.884;2022-10-31T13:06:55;13.95;;;13.15;;
20040;SDS011;10181;48.072;9.884;2022-10-31T13:12:24;18.27;;;17.20;;
20040;SDS011;10181;48.072;9.884;2022-10-31T13:14:54;16.97;;;16.10;;
20040;SDS011;10181;48.072;9.884;2022-10-31T13:17:42;15.57;;;14.65;;
20040;SDS011;10181;48.072;9.884;2022-10-31T13:20:16;18.77;;;17.90;;
20040;SDS011;10181;48.072;9.884;2022-10-31T13:22:56;17.23;;;16.33;;
20040;SDS011;10181;48.072;9.884;2022-10-31T13:25:28;14.80;;;13.63;;
20040;SDS011;10181;48.072;9.884;2022-10-31T13:30:49;17.67;;;16.88;;
20040;SDS011;10181;48.072;9.884;2022-10-31T13:38:28;14.00;;;13.20;;
20040;SDS011;10181;48.072;9.884;2022-10-31T13:41:03;12.68;;;11.73;;
20040;SDS011;10181;48.072;9.884;2022-10-31T13:46:25;11.50;;;10.80;;
20040;SDS011;10181;48.072;9.884;2022-10-31T13:48:57;10.33;;;9.83;;
20040;SDS011;10181;48.072;9.884;2022-10-31T13:51:27;12.50;;;11.68;;
20040;SDS011;10181;48.072;9.884;2022-10-31T13:56:24;22.42;;;21.33;;
20040;SDS011;10181;48.072;9.884;2022-10-31T13:58:59;25.65;;;24.50;;
20040;SDS011;10181;48.072;9.884;2022-10-31T14:01:34;25.48;;;23.80;;
20040;SDS011;10181;48.072;9.884;2022-10-31T14:04:12;23.52;;;22.50;;
20040;SDS011;10181;48.072;9.884;2022-10-31T14:09:32;26.23;;;25.02;;
20040;SDS011;10181;48.072;9.884;2022-10-31T14:12:08;23.75;;;22.75;;
20040;SDS011;10181;48.072;9.884;2022-10-31T14:14:54;26.17;;;24.90;;
20040;SDS011;10181;48.072;9.884;2022-10-31T14:17:28;23.70;;;22.60;;
20040;SDS011;10181;48.072;9.884;2022-10-31T14:22:37;24.90;;;23.83;;
20040;SDS011;10181;48.072;9.884;2022-10-31T14:27:59;23.63;;;22.47;;
20040;SDS011;10181;48.072;9.884;2022-10-31T14:30:55;20.50;;;19.52;;
20040;SDS011;10181;48.072;9.884;2022-10-31T14:33:23;21.08;;;20.05;;
20040;SDS011;10181;48.072;9.884;2022-10-31T14:36:03;25.38;;;24.20;;
20040;SDS011;10181;48.072;9.884;2022-10-31T14:43:52;23.77;;;22.67;;
20040;SDS011;10181;48.072;9.884;2022-10-31T14:46:57;21.60;;;20.63;;
20040;SDS011;10181;48.072;9.884;2022-10-31T14:52:04;17.55;;;16.75;;
20040;SDS011;10181;48.072;9.884;2022-10-31T14:54:32;20.08;;;19.17;;
20040;SDS011;10181;48.072;9.884;2022-10-31T14:57:03;20.23;;;19.25;;
20040;SDS011;10181;48.072;9.884;2022-10-31T14:59:33;21.23;;;20.33;;
20040;SDS011;10181;48.072;9.884;2022-10-31T15:02:13;25.02;;;23.83;;
20040;SDS011;10181;48.072;9.884;2022-10-31T15:04:44;23.55;;;22.45;;
20040;SDS011;10181;48.072;9.884;2022-10-31T15:09:40;18.37;;;17.50;;
20040;SDS011;10181;48.072;9.884;2022-10-31T15:14:54;12.07;;;11.20;;
20040;SDS011;10181;48.072;9.884;2022-10-31T15:17:20;10.73;;;9.85;;
20040;SDS011;10181;48.072;9.884;2022-10-31T15:19:48;7.67;;;7.23;;
20040;SDS011;10181;48.072;9.884;2022-10-31T15:22:16;7.97;;;7.47;;
20040;SDS011;10181;48.072;9.884;2022-10-31T15:24:44;6.50;;;6.20;;
20040;SDS011;10181;48.072;9.884;2022-10-31T15:27:11;7.97;;;7.40;;
20040;SDS011;10181;48.072;9.884;2022-10-31T15:29:47;9.63;;;9.03;;
20040;SDS011;10181;48.072;9.884;2022-10-31T15:32:24;14.83;;;13.83;;
20040;SDS011;10181;48.072;9.884;2022-10-31T15:34:54;11.00;;;9.90;;
20040;SDS011;10181;48.072;9.884;2022-10-31T15:37:21;7.67;;;7.07;;
20040;SDS011;10181;48.072;9.884;2022-10-31T15:39:50;5.67;;;5.30;;
20040;SDS011;10181;48.072;9.884;2022-10-31T15:45:35;9.97;;;9.27;;
20040;SDS011;10181;48.072;9.884;2022-10-31T15:47:36;13.77;;;12.40;;
20040;SDS011;10181;48.072;9.884;2022-10-31T15:50:03;14.20;;;13.10;;
20040;SDS011;10181;48.072;9.884;2022-10-31T15:52:43;12.00;;;11.40;;
20040;SDS011;10181;48.072;9.884;2022-10-31T15:57:43;13.87;;;12.97;;
20040;SDS011;10181;48.072;9.884;2022-10-31T16:00:30;14.33;;;13.27;;
20040;SDS011;10181;48.072;9.884;2022-10-31T16:05:48;12.10;;;11.10;;
20040;SDS011;10181;48.072;9.884;2022-10-31T16:08:22;10.53;;;9.77;;
20040;SDS011;10181;48.072;9.884;2022-10-31T16:10:49;9.33;;;8.63;;
20040;SDS011;10181;48.072;9.884;2022-10-31T16:13:15;9.13;;;8.23;;
20040;SDS011;10181;48.072;9.884;2022-10-31T16:15:55;7.83;;;7.13;;
20040;SDS011;10181;48.072;9.884;2022-10-31T16:18:26;9.47;;;8.67;;
20040;SDS011;10181;48.072;9.884;2022-10-31T16:20:53;14.13;;;13.23;;
20040;SDS011;10181;48.072;9.884;2022-10-31T16:23:21;20.53;;;19.30;;
20040;SDS011;10181;48.072;9.884;2022-10-31T16:25:49;23.93;;;22.43;;
20040;SDS011;10181;48.072;9.884;2022-10-31T16:28:17;22.83;;;21.60;;
20040;SDS011;10181;48.072;9.884;2022-10-31T16:30:48;13.33;;;12.53;;
20040;SDS011;10181;48.072;9.884;2022-10-31T16:35:56;8.00;;;7.30;;
20040;SDS011;10181;48.072;9.884;2022-10-31T16:38:22;16.77;;;11.53;;
20040;SDS011;10181;48.072;9.884;2022-10-31T16:40:48;12.63;;;10.57;;
20040;SDS011;10181;48.072;9.884;2022-10-31T16:43:16;11.60;;;10.43;;
20040;SDS011;10181;48.072;9.884;2022-10-31T16:45:47;12.70;;;9.80;;